sensor_id;sensor_type;location;lat;lon;timestamp;P1;durP1;ratioP1;P2;durP2;ratioP2
5898;SDS011;2975;50.956;6.962;2023-11-19T00:00:24;0.97;;;0.90;;
5898;SDS011;2975;50.956;6.962;2023-11-19T00:02:50;2.07;;;1.20;;
5898;SDS011;2975;50.956;6.962;2023-11-19T00:05:16;2.27;;;1.00;;
5898;SDS011;2975;50.956;6.962;2023-11-19T00:07:42;2.23;;;1.10;;
5898;SDS011;2975;50.956;6.962;2023-11-19T00:10:08;1.83;;;1.10;;
5898;SDS011;2975;50.956;6.962;2023-11-19T00:12:35;2.10;;;0.90;;
5898;SDS011;2975;50.956;6.962;2023-11-19T00:15:02;1.07;;;0.90;;
5898;SDS011;2975;50.956;6.962;2023-11-19T00:17:27;0.83;;;0.80;;
5898;SDS011;2975;50.956;6.962;2023-11-19T00:19:53;0.70;;;0.70;;
5898;SDS011;2975;50.956;6.962;2023-11-19T00:22:18;1.27;;;1.00;;
5898;SDS011;2975;50.956;6.962;2023-11-19T00:24:46;1.37;;;0.60;;
5898;SDS011;2975;50.956;6.962;2023-11-19T00:27:12;0.60;;;0.60;;
5898;SDS011;2975;50.956;6.962;2023-11-19T00:29:37;2.67;;;0.60;;
5898;SDS011;2975;50.956;6.962;2023-11-19T00:32:03;0.73;;;0.73;;
5898;SDS011;2975;50.956;6.962;2023-11-19T00:34:30;0.70;;;0.70;;
5898;SDS011;2975;50.956;6.962;2023-11-19T00:36:57;0.73;;;0.60;;
5898;SDS011;2975;50.956;6.962;2023-11-19T00:39:22;0.60;;;0.60;;
5898;SDS011;2975;50.956;6.962;2023-11-19T00:41:48;0.60;;;0.50;;
5898;SDS011;2975;50.956;6.962;2023-11-19T00:44:13;0.60;;;0.60;;
5898;SDS011;2975;50.956;6.962;2023-11-19T00:46:39;0.83;;;0.60;;
5898;SDS011;2975;50.956;6.962;2023-11-19T00:49:05;0.87;;;0.87;;
5898;SDS011;2975;50.956;6.962;2023-11-19T00:51:30;0.50;;;0.50;;
5898;SDS011;2975;50.956;6.962;2023-11-19T00:53:56;0.70;;;0.70;;
5898;SDS011;2975;50.956;6.962;2023-11-19T00:56:22;1.03;;;0.60;;
5898;SDS011;2975;50.956;6.962;2023-11-19T00:58:49;0.90;;;0.60;;
5898;SDS011;2975;50.956;6.962;2023-11-19T01:01:14;1.23;;;0.57;;
5898;SDS011;2975;50.956;6.962;2023-11-19T01:03:40;1.17;;;0.80;;
5898;SDS011;2975;50.956;6.962;2023-11-19T01:06:06;2.67;;;1.00;;
5898;SDS011;2975;50.956;6.962;2023-11-19T01:08:33;0.70;;;0.70;;
5898;SDS011;2975;50.956;6.962;2023-11-19T01:11:00;1.30;;;0.80;;
5898;SDS011;2975;50.956;6.962;2023-11-19T01:13:27;0.90;;;0.90;;
5898;SDS011;2975;50.956;6.962;2023-11-19T01:15:52;1.00;;;0.90;;
5898;SDS011;2975;50.956;6.962;2023-11-19T01:18:18;0.70;;;0.70;;
5898;SDS011;2975;50.956;6.962;2023-11-19T01:20:44;2.13;;;1.07;;
5898;SDS011;2975;50.956;6.962;2023-11-19T01:23:09;0.63;;;0.63;;
5898;SDS011;2975;50.956;6.962;2023-11-19T01:25:35;1.30;;;0.77;;
5898;SDS011;2975;50.956;6.962;2023-11-19T01:28:02;3.70;;;0.90;;
5898;SDS011;2975;50.956;6.962;2023-11-19T01:30:27;2.33;;;0.80;;
5898;SDS011;2975;50.956;6.962;2023-11-19T01:32:53;3.87;;;0.90;;
5898;SDS011;2975;50.956;6.962;2023-11-19T01:35:19;1.07;;;0.83;;
5898;SDS011;2975;50.956;6.962;2023-11-19T01:37:44;1.23;;;1.10;;
5898;SDS011;2975;50.956;6.962;2023-11-19T01:40:10;1.30;;;0.90;;
5898;SDS011;2975;50.956;6.962;2023-11-19T01:42:39;1.67;;;1.20;;
5898;SDS011;2975;50.956;6.962;2023-11-19T01:45:06;2.10;;;1.37;;
5898;SDS011;2975;50.956;6.962;2023-11-19T01:47:35;2.50;;;2.00;;
5898;SDS011;2975;50.956;6.962;2023-11-19T01:50:05;3.67;;;1.77;;
5898;SDS011;2975;50.956;6.962;2023-11-19T01:52:33;4.03;;;1.50;;
5898;SDS011;2975;50.956;6.962;2023-11-19T01:55:03;2.53;;;1.33;;
5898;SDS011;2975;50.956;6.962;2023-11-19T01:57:29;1.93;;;1.40;;
5898;SDS011;2975;50.956;6.962;2023-11-19T01:59:55;1.57;;;1.20;;
5898;SDS011;2975;50.956;6.962;2023-11-19T02:02:21;1.43;;;1.20;;
5898;SDS011;2975;50.956;6.962;2023-11-19T02:04:47;1.43;;;1.10;;
5898;SDS011;2975;50.956;6.962;2023-11-19T02:07:14;1.20;;;0.70;;
5898;SDS011;2975;50.956;6.962;2023-11-19T02:09:42;1.83;;;1.00;;
5898;SDS011;2975;50.956;6.962;2023-11-19T02:12:09;2.20;;;1.03;;
5898;SDS011;2975;50.956;6.962;2023-11-19T02:14:36;5.87;;;0.87;;
5898;SDS011;2975;50.956;6.962;2023-11-19T02:17:02;2.53;;;1.23;;
5898;SDS011;2975;50.956;6.962;2023-11-19T02:19:28;1.33;;;0.90;;
5898;SDS011;2975;50.956;6.962;2023-11-19T02:21:54;1.10;;;0.90;;
5898;SDS011;2975;50.956;6.962;2023-11-19T02:24:21;1.83;;;1.03;;
5898;SDS011;2975;50.956;6.962;2023-11-19T02:27:07;2.87;;;1.10;;
5898;SDS011;2975;50.956;6.962;2023-11-19T02:29:40;1.80;;;1.10;;
5898;SDS011;2975;50.956;6.962;2023-11-19T02:32:05;3.57;;;1.00;;
5898;SDS011;2975;50.956;6.962;2023-11-19T02:34:34;1.90;;;1.03;;
5898;SDS011;2975;50.956;6.962;2023-11-19T02:36:59;4.63;;;1.00;;
5898;SDS011;2975;50.956;6.962;2023-11-19T02:39:25;4.10;;;0.90;;
5898;SDS011;2975;50.956;6.962;2023-11-19T02:41:51;5.77;;;1.27;;
5898;SDS011;2975;50.956;6.962;2023-11-19T02:44:18;6.33;;;1.23;;
5898;SDS011;2975;50.956;6.962;2023-11-19T02:46:43;1.90;;;0.87;;
5898;SDS011;2975;50.956;6.962;2023-11-19T02:49:10;4.33;;;1.83;;
5898;SDS011;2975;50.956;6.962;2023-11-19T02:51:35;2.97;;;1.00;;
5898;SDS011;2975;50.956;6.962;2023-11-19T02:54:01;6.83;;;1.50;;
5898;SDS011;2975;50.956;6.962;2023-11-19T02:56:28;6.20;;;1.30;;
5898;SDS011;2975;50.956;6.962;2023-11-19T02:58:59;2.10;;;1.07;;
5898;SDS011;2975;50.956;6.962;2023-11-19T03:01:28;3.50;;;1.03;;
5898;SDS011;2975;50.956;6.962;2023-11-19T03:04:00;5.43;;;1.23;;
5898;SDS011;2975;50.956;6.962;2023-11-19T03:06:27;4.63;;;1.30;;
5898;SDS011;2975;50.956;6.962;2023-11-19T03:08:54;5.03;;;1.30;;
5898;SDS011;2975;50.956;6.962;2023-11-19T03:11:20;4.93;;;1.37;;
5898;SDS011;2975;50.956;6.962;2023-11-19T03:13:45;7.43;;;1.73;;
5898;SDS011;2975;50.956;6.962;2023-11-19T03:16:11;5.60;;;1.83;;
5898;SDS011;2975;50.956;6.962;2023-11-19T03:18:37;8.13;;;1.80;;
5898;SDS011;2975;50.956;6.962;2023-11-19T03:21:05;7.90;;;1.20;;
5898;SDS011;2975;50.956;6.962;2023-11-19T03:23:32;5.10;;;1.43;;
5898;SDS011;2975;50.956;6.962;2023-11-19T03:25:58;8.73;;;1.40;;
5898;SDS011;2975;50.956;6.962;2023-11-19T03:28:24;2.97;;;1.10;;
5898;SDS011;2975;50.956;6.962;2023-11-19T03:30:49;7.43;;;1.30;;
5898;SDS011;2975;50.956;6.962;2023-11-19T03:33:15;5.17;;;1.40;;
5898;SDS011;2975;50.956;6.962;2023-11-19T03:35:41;3.00;;;1.20;;
5898;SDS011;2975;50.956;6.962;2023-11-19T03:38:06;9.27;;;1.77;;
5898;SDS011;2975;50.956;6.962;2023-11-19T03:40:32;7.27;;;1.70;;
5898;SDS011;2975;50.956;6.962;2023-11-19T03:42:58;6.40;;;1.67;;
5898;SDS011;2975;50.956;6.962;2023-11-19T03:45:23;10.37;;;1.70;;
5898;SDS011;2975;50.956;6.962;2023-11-19T03:47:50;5.10;;;1.40;;
5898;SDS011;2975;50.956;6.962;2023-11-19T03:50:15;7.30;;;1.50;;
5898;SDS011;2975;50.956;6.962;2023-11-19T03:52:41;7.33;;;1.57;;
5898;SDS011;2975;50.956;6.962;2023-11-19T03:55:07;10.20;;;1.53;;
5898;SDS011;2975;50.956;6.962;2023-11-19T03:57:34;13.70;;;1.83;;
5898;SDS011;2975;50.956;6.962;2023-11-19T04:00:00;4.30;;;1.47;;
5898;SDS011;2975;50.956;6.962;2023-11-19T04:02:31;11.33;;;1.83;;
5898;SDS011;2975;50.956;6.962;2023-11-19T04:04:56;3.70;;;1.30;;
5898;SDS011;2975;50.956;6.962;2023-11-19T04:07:22;12.87;;;2.40;;
5898;SDS011;2975;50.956;6.962;2023-11-19T04:09:47;6.47;;;1.40;;
5898;SDS011;2975;50.956;6.962;2023-11-19T04:12:13;3.90;;;1.50;;
5898;SDS011;2975;50.956;6.962;2023-11-19T04:14:38;8.33;;;1.80;;
5898;SDS011;2975;50.956;6.962;2023-11-19T04:17:05;3.30;;;1.33;;
5898;SDS011;2975;50.956;6.962;2023-11-19T04:19:31;10.33;;;1.93;;
5898;SDS011;2975;50.956;6.962;2023-11-19T04:21:57;3.83;;;1.13;;
5898;SDS011;2975;50.956;6.962;2023-11-19T04:24:23;4.20;;;1.27;;
5898;SDS011;2975;50.956;6.962;2023-11-19T04:26:49;8.20;;;1.50;;
5898;SDS011;2975;50.956;6.962;2023-11-19T04:29:16;6.53;;;1.63;;
5898;SDS011;2975;50.956;6.962;2023-11-19T04:31:45;7.03;;;2.10;;
5898;SDS011;2975;50.956;6.962;2023-11-19T04:34:11;10.97;;;1.43;;
5898;SDS011;2975;50.956;6.962;2023-11-19T04:36:37;3.00;;;1.27;;
5898;SDS011;2975;50.956;6.962;2023-11-19T04:39:04;6.80;;;1.60;;
5898;SDS011;2975;50.956;6.962;2023-11-19T04:41:45;8.63;;;1.77;;
5898;SDS011;2975;50.956;6.962;2023-11-19T04:44:12;8.53;;;1.97;;
5898;SDS011;2975;50.956;6.962;2023-11-19T04:46:38;7.87;;;2.30;;
5898;SDS011;2975;50.956;6.962;2023-11-19T04:49:03;10.27;;;1.90;;
5898;SDS011;2975;50.956;6.962;2023-11-19T04:51:29;8.83;;;1.90;;
5898;SDS011;2975;50.956;6.962;2023-11-19T04:53:55;8.37;;;2.00;;
5898;SDS011;2975;50.956;6.962;2023-11-19T04:56:21;13.80;;;1.80;;
5898;SDS011;2975;50.956;6.962;2023-11-19T04:58:48;15.23;;;1.93;;
5898;SDS011;2975;50.956;6.962;2023-11-19T05:01:14;10.93;;;2.03;;
5898;SDS011;2975;50.956;6.962;2023-11-19T05:03:42;13.23;;;1.87;;
5898;SDS011;2975;50.956;6.962;2023-11-19T05:06:08;10.13;;;2.23;;
5898;SDS011;2975;50.956;6.962;2023-11-19T05:08:34;11.33;;;1.77;;
5898;SDS011;2975;50.956;6.962;2023-11-19T05:11:00;8.83;;;1.70;;
5898;SDS011;2975;50.956;6.962;2023-11-19T05:13:26;13.07;;;2.17;;
5898;SDS011;2975;50.956;6.962;2023-11-19T05:15:51;13.63;;;2.37;;
5898;SDS011;2975;50.956;6.962;2023-11-19T05:18:17;9.07;;;1.97;;
5898;SDS011;2975;50.956;6.962;2023-11-19T05:20:43;13.53;;;1.90;;
5898;SDS011;2975;50.956;6.962;2023-11-19T05:23:10;8.27;;;2.40;;
5898;SDS011;2975;50.956;6.962;2023-11-19T05:25:36;8.43;;;1.93;;
5898;SDS011;2975;50.956;6.962;2023-11-19T05:28:01;10.10;;;2.43;;
5898;SDS011;2975;50.956;6.962;2023-11-19T05:30:27;9.77;;;2.07;;
5898;SDS011;2975;50.956;6.962;2023-11-19T05:32:53;12.80;;;3.43;;
5898;SDS011;2975;50.956;6.962;2023-11-19T05:35:18;12.47;;;1.80;;
5898;SDS011;2975;50.956;6.962;2023-11-19T05:37:44;13.60;;;2.00;;
5898;SDS011;2975;50.956;6.962;2023-11-19T05:40:09;14.17;;;2.80;;
5898;SDS011;2975;50.956;6.962;2023-11-19T05:42:40;11.87;;;2.20;;
5898;SDS011;2975;50.956;6.962;2023-11-19T05:45:06;8.57;;;2.40;;
5898;SDS011;2975;50.956;6.962;2023-11-19T05:47:33;11.10;;;2.13;;
5898;SDS011;2975;50.956;6.962;2023-11-19T05:49:58;10.60;;;2.03;;
5898;SDS011;2975;50.956;6.962;2023-11-19T05:52:24;10.80;;;2.20;;
5898;SDS011;2975;50.956;6.962;2023-11-19T05:54:49;7.87;;;1.97;;
5898;SDS011;2975;50.956;6.962;2023-11-19T05:57:17;8.77;;;2.10;;
5898;SDS011;2975;50.956;6.962;2023-11-19T05:59:49;15.57;;;2.70;;
5898;SDS011;2975;50.956;6.962;2023-11-19T06:02:14;16.03;;;2.33;;
5898;SDS011;2975;50.956;6.962;2023-11-19T06:04:40;11.23;;;2.13;;
5898;SDS011;2975;50.956;6.962;2023-11-19T06:07:09;21.93;;;2.30;;
5898;SDS011;2975;50.956;6.962;2023-11-19T06:09:34;11.87;;;2.13;;
5898;SDS011;2975;50.956;6.962;2023-11-19T06:12:00;13.87;;;2.97;;
5898;SDS011;2975;50.956;6.962;2023-11-19T06:14:27;14.13;;;2.50;;
5898;SDS011;2975;50.956;6.962;2023-11-19T06:16:52;18.47;;;2.87;;
5898;SDS011;2975;50.956;6.962;2023-11-19T06:19:18;20.47;;;2.40;;
5898;SDS011;2975;50.956;6.962;2023-11-19T06:21:44;15.10;;;3.40;;
5898;SDS011;2975;50.956;6.962;2023-11-19T06:24:09;15.60;;;2.27;;
5898;SDS011;2975;50.956;6.962;2023-11-19T06:26:35;20.07;;;2.47;;
5898;SDS011;2975;50.956;6.962;2023-11-19T06:29:00;15.50;;;2.70;;
5898;SDS011;2975;50.956;6.962;2023-11-19T06:31:26;16.77;;;2.57;;
5898;SDS011;2975;50.956;6.962;2023-11-19T06:33:52;19.50;;;3.13;;
5898;SDS011;2975;50.956;6.962;2023-11-19T06:36:18;21.93;;;3.80;;
5898;SDS011;2975;50.956;6.962;2023-11-19T06:38:43;16.07;;;2.50;;
5898;SDS011;2975;50.956;6.962;2023-11-19T06:41:09;18.13;;;3.03;;
5898;SDS011;2975;50.956;6.962;2023-11-19T06:43:34;17.60;;;2.60;;
5898;SDS011;2975;50.956;6.962;2023-11-19T06:46:01;17.40;;;2.77;;
5898;SDS011;2975;50.956;6.962;2023-11-19T06:48:27;12.80;;;2.43;;
5898;SDS011;2975;50.956;6.962;2023-11-19T06:50:53;15.87;;;2.20;;
5898;SDS011;2975;50.956;6.962;2023-11-19T06:53:18;20.63;;;2.50;;
5898;SDS011;2975;50.956;6.962;2023-11-19T06:55:44;15.20;;;2.60;;
5898;SDS011;2975;50.956;6.962;2023-11-19T06:58:10;15.30;;;2.13;;
5898;SDS011;2975;50.956;6.962;2023-11-19T07:00:37;12.13;;;3.20;;
5898;SDS011;2975;50.956;6.962;2023-11-19T07:03:02;14.57;;;2.53;;
5898;SDS011;2975;50.956;6.962;2023-11-19T07:05:28;17.03;;;3.00;;
5898;SDS011;2975;50.956;6.962;2023-11-19T07:07:55;14.73;;;2.53;;
5898;SDS011;2975;50.956;6.962;2023-11-19T07:10:20;13.43;;;3.33;;
5898;SDS011;2975;50.956;6.962;2023-11-19T07:12:46;16.40;;;3.10;;
5898;SDS011;2975;50.956;6.962;2023-11-19T07:15:12;17.43;;;3.30;;
5898;SDS011;2975;50.956;6.962;2023-11-19T07:17:38;12.60;;;2.77;;
5898;SDS011;2975;50.956;6.962;2023-11-19T07:20:05;20.30;;;3.97;;
5898;SDS011;2975;50.956;6.962;2023-11-19T07:22:31;11.90;;;2.87;;
5898;SDS011;2975;50.956;6.962;2023-11-19T07:24:56;21.47;;;3.43;;
5898;SDS011;2975;50.956;6.962;2023-11-19T07:27:22;22.60;;;4.00;;
5898;SDS011;2975;50.956;6.962;2023-11-19T07:29:49;16.13;;;3.07;;
5898;SDS011;2975;50.956;6.962;2023-11-19T07:32:14;17.97;;;3.17;;
5898;SDS011;2975;50.956;6.962;2023-11-19T07:34:40;16.30;;;2.63;;
5898;SDS011;2975;50.956;6.962;2023-11-19T07:37:06;16.77;;;3.93;;
5898;SDS011;2975;50.956;6.962;2023-11-19T07:39:32;10.93;;;2.03;;
5898;SDS011;2975;50.956;6.962;2023-11-19T07:41:57;20.37;;;3.53;;
5898;SDS011;2975;50.956;6.962;2023-11-19T07:44:23;18.40;;;2.90;;
5898;SDS011;2975;50.956;6.962;2023-11-19T07:46:49;14.63;;;2.37;;
5898;SDS011;2975;50.956;6.962;2023-11-19T07:49:15;11.17;;;2.60;;
5898;SDS011;2975;50.956;6.962;2023-11-19T07:51:40;12.80;;;2.93;;
5898;SDS011;2975;50.956;6.962;2023-11-19T07:54:06;14.57;;;2.87;;
5898;SDS011;2975;50.956;6.962;2023-11-19T07:56:33;18.23;;;4.30;;
5898;SDS011;2975;50.956;6.962;2023-11-19T07:59:02;21.20;;;2.73;;
5898;SDS011;2975;50.956;6.962;2023-11-19T08:01:28;14.10;;;2.67;;
5898;SDS011;2975;50.956;6.962;2023-11-19T08:03:53;16.60;;;3.23;;
5898;SDS011;2975;50.956;6.962;2023-11-19T08:06:19;17.37;;;3.33;;
5898;SDS011;2975;50.956;6.962;2023-11-19T08:08:45;18.67;;;2.80;;
5898;SDS011;2975;50.956;6.962;2023-11-19T08:11:10;16.10;;;2.87;;
5898;SDS011;2975;50.956;6.962;2023-11-19T08:13:36;20.43;;;3.70;;
5898;SDS011;2975;50.956;6.962;2023-11-19T08:16:01;11.93;;;2.30;;
5898;SDS011;2975;50.956;6.962;2023-11-19T08:18:27;18.10;;;3.27;;
5898;SDS011;2975;50.956;6.962;2023-11-19T08:20:53;17.13;;;2.93;;
5898;SDS011;2975;50.956;6.962;2023-11-19T08:23:19;12.73;;;3.33;;
5898;SDS011;2975;50.956;6.962;2023-11-19T08:25:45;17.77;;;3.30;;
5898;SDS011;2975;50.956;6.962;2023-11-19T08:28:11;17.33;;;3.57;;
5898;SDS011;2975;50.956;6.962;2023-11-19T08:30:37;12.97;;;3.07;;
5898;SDS011;2975;50.956;6.962;2023-11-19T08:33:03;11.53;;;2.57;;
5898;SDS011;2975;50.956;6.962;2023-11-19T08:35:29;17.37;;;2.80;;
5898;SDS011;2975;50.956;6.962;2023-11-19T08:37:55;28.17;;;3.70;;
5898;SDS011;2975;50.956;6.962;2023-11-19T08:40:20;14.50;;;2.73;;
5898;SDS011;2975;50.956;6.962;2023-11-19T08:42:46;13.23;;;2.97;;
5898;SDS011;2975;50.956;6.962;2023-11-19T08:45:11;13.40;;;2.73;;
5898;SDS011;2975;50.956;6.962;2023-11-19T08:47:37;25.00;;;2.90;;
5898;SDS011;2975;50.956;6.962;2023-11-19T08:50:03;12.87;;;2.83;;
5898;SDS011;2975;50.956;6.962;2023-11-19T08:52:29;14.57;;;3.13;;
5898;SDS011;2975;50.956;6.962;2023-11-19T08:54:55;20.00;;;2.97;;
5898;SDS011;2975;50.956;6.962;2023-11-19T08:57:21;22.13;;;3.20;;
5898;SDS011;2975;50.956;6.962;2023-11-19T08:59:46;15.03;;;3.33;;
5898;SDS011;2975;50.956;6.962;2023-11-19T09:02:12;18.53;;;4.40;;
5898;SDS011;2975;50.956;6.962;2023-11-19T09:04:38;18.40;;;3.40;;
5898;SDS011;2975;50.956;6.962;2023-11-19T09:07:03;14.43;;;2.83;;
5898;SDS011;2975;50.956;6.962;2023-11-19T09:09:29;15.50;;;3.33;;
5898;SDS011;2975;50.956;6.962;2023-11-19T09:11:55;15.53;;;2.60;;
5898;SDS011;2975;50.956;6.962;2023-11-19T09:14:20;16.63;;;2.70;;
5898;SDS011;2975;50.956;6.962;2023-11-19T09:16:51;18.40;;;2.67;;
5898;SDS011;2975;50.956;6.962;2023-11-19T09:19:17;19.13;;;3.87;;
5898;SDS011;2975;50.956;6.962;2023-11-19T09:21:42;13.30;;;3.20;;
5898;SDS011;2975;50.956;6.962;2023-11-19T09:24:08;17.20;;;3.23;;
5898;SDS011;2975;50.956;6.962;2023-11-19T09:26:34;16.27;;;3.27;;
5898;SDS011;2975;50.956;6.962;2023-11-19T09:29:01;23.00;;;3.83;;
5898;SDS011;2975;50.956;6.962;2023-11-19T09:31:27;16.80;;;2.83;;
5898;SDS011;2975;50.956;6.962;2023-11-19T09:33:52;17.33;;;3.40;;
5898;SDS011;2975;50.956;6.962;2023-11-19T09:36:18;19.63;;;3.63;;
5898;SDS011;2975;50.956;6.962;2023-11-19T09:38:44;18.23;;;3.13;;
5898;SDS011;2975;50.956;6.962;2023-11-19T09:41:10;13.47;;;2.90;;
5898;SDS011;2975;50.956;6.962;2023-11-19T09:43:41;19.53;;;2.67;;
5898;SDS011;2975;50.956;6.962;2023-11-19T09:46:09;15.27;;;2.67;;
5898;SDS011;2975;50.956;6.962;2023-11-19T09:48:38;17.13;;;3.60;;
5898;SDS011;2975;50.956;6.962;2023-11-19T09:51:10;14.70;;;3.17;;
5898;SDS011;2975;50.956;6.962;2023-11-19T09:53:36;14.50;;;2.83;;
5898;SDS011;2975;50.956;6.962;2023-11-19T09:56:03;15.77;;;2.73;;
5898;SDS011;2975;50.956;6.962;2023-11-19T09:58:30;10.90;;;2.33;;
5898;SDS011;2975;50.956;6.962;2023-11-19T10:00:57;16.20;;;3.53;;
5898;SDS011;2975;50.956;6.962;2023-11-19T10:03:24;21.70;;;4.07;;
5898;SDS011;2975;50.956;6.962;2023-11-19T10:05:57;18.57;;;3.23;;
5898;SDS011;2975;50.956;6.962;2023-11-19T10:08:24;20.10;;;2.70;;
5898;SDS011;2975;50.956;6.962;2023-11-19T10:10:50;15.20;;;2.73;;
5898;SDS011;2975;50.956;6.962;2023-11-19T10:13:16;16.07;;;3.00;;
5898;SDS011;2975;50.956;6.962;2023-11-19T10:15:42;17.57;;;3.07;;
5898;SDS011;2975;50.956;6.962;2023-11-19T10:18:09;17.87;;;3.03;;
5898;SDS011;2975;50.956;6.962;2023-11-19T10:20:38;19.03;;;3.30;;
5898;SDS011;2975;50.956;6.962;2023-11-19T10:23:06;14.33;;;3.07;;
5898;SDS011;2975;50.956;6.962;2023-11-19T10:25:32;13.43;;;2.80;;
5898;SDS011;2975;50.956;6.962;2023-11-19T10:27:58;17.73;;;3.13;;
5898;SDS011;2975;50.956;6.962;2023-11-19T10:30:28;14.50;;;3.10;;
5898;SDS011;2975;50.956;6.962;2023-11-19T10:33:02;17.43;;;3.73;;
5898;SDS011;2975;50.956;6.962;2023-11-19T10:35:36;14.00;;;2.73;;
5898;SDS011;2975;50.956;6.962;2023-11-19T10:38:16;13.17;;;2.53;;
5898;SDS011;2975;50.956;6.962;2023-11-19T10:40:42;13.93;;;2.60;;
5898;SDS011;2975;50.956;6.962;2023-11-19T10:43:08;13.47;;;2.90;;
5898;SDS011;2975;50.956;6.962;2023-11-19T10:45:34;12.57;;;2.30;;
5898;SDS011;2975;50.956;6.962;2023-11-19T10:48:04;12.87;;;2.70;;
5898;SDS011;2975;50.956;6.962;2023-11-19T10:50:35;9.50;;;2.30;;
5898;SDS011;2975;50.956;6.962;2023-11-19T10:53:02;12.17;;;2.80;;
5898;SDS011;2975;50.956;6.962;2023-11-19T10:55:33;17.90;;;2.97;;
5898;SDS011;2975;50.956;6.962;2023-11-19T10:58:03;14.57;;;2.73;;
5898;SDS011;2975;50.956;6.962;2023-11-19T11:00:31;15.70;;;2.60;;
5898;SDS011;2975;50.956;6.962;2023-11-19T11:03:05;16.60;;;3.87;;
5898;SDS011;2975;50.956;6.962;2023-11-19T11:05:36;17.63;;;3.07;;
5898;SDS011;2975;50.956;6.962;2023-11-19T11:08:04;17.47;;;2.67;;
5898;SDS011;2975;50.956;6.962;2023-11-19T11:10:32;13.70;;;3.03;;
5898;SDS011;2975;50.956;6.962;2023-11-19T11:13:05;18.00;;;3.47;;
5898;SDS011;2975;50.956;6.962;2023-11-19T11:15:31;14.90;;;2.90;;
5898;SDS011;2975;50.956;6.962;2023-11-19T11:18:00;12.87;;;2.50;;
5898;SDS011;2975;50.956;6.962;2023-11-19T11:20:28;16.43;;;3.17;;
5898;SDS011;2975;50.956;6.962;2023-11-19T11:28:52;17.77;;;2.70;;
5898;SDS011;2975;50.956;6.962;2023-11-19T11:32:33;14.50;;;2.23;;
5898;SDS011;2975;50.956;6.962;2023-11-19T11:34:36;12.60;;;2.87;;
5898;SDS011;2975;50.956;6.962;2023-11-19T11:39:51;15.77;;;3.38;;
5898;SDS011;2975;50.956;6.962;2023-11-19T11:47:48;14.97;;;2.50;;
5898;SDS011;2975;50.956;6.962;2023-11-19T11:50:48;12.33;;;2.47;;
5898;SDS011;2975;50.956;6.962;2023-11-19T11:53:15;13.13;;;2.73;;
5898;SDS011;2975;50.956;6.962;2023-11-19T11:58:17;9.47;;;2.17;;
5898;SDS011;2975;50.956;6.962;2023-11-19T12:00:51;15.57;;;3.07;;
5898;SDS011;2975;50.956;6.962;2023-11-19T12:03:19;14.13;;;2.53;;
5898;SDS011;2975;50.956;6.962;2023-11-19T12:05:48;12.07;;;2.70;;
5898;SDS011;2975;50.956;6.962;2023-11-19T12:08:16;8.57;;;2.47;;
5898;SDS011;2975;50.956;6.962;2023-11-19T12:10:52;14.10;;;2.37;;
5898;SDS011;2975;50.956;6.962;2023-11-19T12:13:20;14.17;;;2.50;;
5898;SDS011;2975;50.956;6.962;2023-11-19T12:18:23;10.33;;;1.97;;
5898;SDS011;2975;50.956;6.962;2023-11-19T12:20:49;14.73;;;2.63;;
5898;SDS011;2975;50.956;6.962;2023-11-19T12:23:15;12.20;;;2.20;;
5898;SDS011;2975;50.956;6.962;2023-11-19T12:25:41;10.83;;;2.30;;
5898;SDS011;2975;50.956;6.962;2023-11-19T12:28:11;15.83;;;2.97;;
5898;SDS011;2975;50.956;6.962;2023-11-19T12:30:38;13.23;;;2.27;;
5898;SDS011;2975;50.956;6.962;2023-11-19T12:33:07;9.73;;;2.07;;
5898;SDS011;2975;50.956;6.962;2023-11-19T12:35:40;18.03;;;2.97;;
5898;SDS011;2975;50.956;6.962;2023-11-19T12:38:06;11.17;;;2.40;;
5898;SDS011;2975;50.956;6.962;2023-11-19T12:40:31;10.20;;;2.90;;
5898;SDS011;2975;50.956;6.962;2023-11-19T12:42:57;13.65;;;2.63;;
5898;SDS011;2975;50.956;6.962;2023-11-19T12:45:24;13.90;;;2.60;;
5898;SDS011;2975;50.956;6.962;2023-11-19T12:47:49;6.93;;;2.13;;
5898;SDS011;2975;50.956;6.962;2023-11-19T12:50:17;9.33;;;2.40;;
5898;SDS011;2975;50.956;6.962;2023-11-19T12:52:54;13.23;;;2.77;;
5898;SDS011;2975;50.956;6.962;2023-11-19T12:57:54;10.53;;;3.20;;
5898;SDS011;2975;50.956;6.962;2023-11-19T13:00:24;15.60;;;2.30;;
5898;SDS011;2975;50.956;6.962;2023-11-19T13:02:54;10.37;;;2.27;;
5898;SDS011;2975;50.956;6.962;2023-11-19T13:08:07;11.47;;;2.17;;
5898;SDS011;2975;50.956;6.962;2023-11-19T13:13:16;10.90;;;2.13;;
5898;SDS011;2975;50.956;6.962;2023-11-19T13:15:42;9.17;;;2.00;;
5898;SDS011;2975;50.956;6.962;2023-11-19T13:18:09;9.90;;;2.13;;
5898;SDS011;2975;50.956;6.962;2023-11-19T13:20:35;8.50;;;2.03;;
5898;SDS011;2975;50.956;6.962;2023-11-19T13:23:01;9.17;;;2.63;;
5898;SDS011;2975;50.956;6.962;2023-11-19T13:25:29;8.87;;;1.80;;
5898;SDS011;2975;50.956;6.962;2023-11-19T13:27:55;11.10;;;2.40;;
5898;SDS011;2975;50.956;6.962;2023-11-19T13:30:24;6.83;;;2.00;;
5898;SDS011;2975;50.956;6.962;2023-11-19T13:32:51;10.27;;;2.10;;
5898;SDS011;2975;50.956;6.962;2023-11-19T13:35:17;12.77;;;2.57;;
5898;SDS011;2975;50.956;6.962;2023-11-19T13:37:44;18.10;;;2.70;;
5898;SDS011;2975;50.956;6.962;2023-11-19T13:40:10;14.13;;;2.40;;
5898;SDS011;2975;50.956;6.962;2023-11-19T13:42:39;16.03;;;2.33;;
5898;SDS011;2975;50.956;6.962;2023-11-19T13:45:09;12.73;;;2.50;;
5898;SDS011;2975;50.956;6.962;2023-11-19T13:47:42;10.80;;;2.33;;
5898;SDS011;2975;50.956;6.962;2023-11-19T13:50:09;11.50;;;2.60;;
5898;SDS011;2975;50.956;6.962;2023-11-19T13:52:36;15.33;;;2.60;;
5898;SDS011;2975;50.956;6.962;2023-11-19T13:55:04;11.07;;;2.80;;
5898;SDS011;2975;50.956;6.962;2023-11-19T13:57:31;11.80;;;2.80;;
5898;SDS011;2975;50.956;6.962;2023-11-19T13:59:57;13.00;;;2.93;;
5898;SDS011;2975;50.956;6.962;2023-11-19T14:02:22;12.60;;;2.37;;
5898;SDS011;2975;50.956;6.962;2023-11-19T14:04:48;10.00;;;2.67;;
5898;SDS011;2975;50.956;6.962;2023-11-19T14:07:14;15.40;;;3.03;;
5898;SDS011;2975;50.956;6.962;2023-11-19T14:09:41;9.13;;;2.27;;
5898;SDS011;2975;50.956;6.962;2023-11-19T14:12:07;16.27;;;3.77;;
5898;SDS011;2975;50.956;6.962;2023-11-19T14:14:34;13.38;;;2.95;;
5898;SDS011;2975;50.956;6.962;2023-11-19T14:17:01;17.60;;;3.37;;
5898;SDS011;2975;50.956;6.962;2023-11-19T14:19:28;10.10;;;2.50;;
5898;SDS011;2975;50.956;6.962;2023-11-19T14:21:54;10.03;;;2.60;;
5898;SDS011;2975;50.956;6.962;2023-11-19T14:24:19;11.07;;;2.97;;
5898;SDS011;2975;50.956;6.962;2023-11-19T14:26:48;17.07;;;2.67;;
5898;SDS011;2975;50.956;6.962;2023-11-19T14:29:15;15.37;;;2.47;;
5898;SDS011;2975;50.956;6.962;2023-11-19T14:31:40;17.77;;;2.95;;
5898;SDS011;2975;50.956;6.962;2023-11-19T14:34:06;5.77;;;2.17;;
5898;SDS011;2975;50.956;6.962;2023-11-19T14:36:32;19.53;;;2.73;;
5898;SDS011;2975;50.956;6.962;2023-11-19T14:38:57;15.00;;;2.30;;
5898;SDS011;2975;50.956;6.962;2023-11-19T14:41:24;11.63;;;2.53;;
5898;SDS011;2975;50.956;6.962;2023-11-19T14:43:49;12.17;;;2.17;;
5898;SDS011;2975;50.956;6.962;2023-11-19T14:46:15;10.17;;;2.40;;
5898;SDS011;2975;50.956;6.962;2023-11-19T14:48:40;9.13;;;2.03;;
5898;SDS011;2975;50.956;6.962;2023-11-19T14:51:06;7.87;;;2.60;;
5898;SDS011;2975;50.956;6.962;2023-11-19T14:53:32;9.80;;;2.37;;
5898;SDS011;2975;50.956;6.962;2023-11-19T14:55:58;16.63;;;2.60;;
5898;SDS011;2975;50.956;6.962;2023-11-19T14:58:23;9.33;;;2.17;;
5898;SDS011;2975;50.956;6.962;2023-11-19T15:00:50;11.10;;;2.37;;
5898;SDS011;2975;50.956;6.962;2023-11-19T15:03:16;8.80;;;2.17;;
5898;SDS011;2975;50.956;6.962;2023-11-19T15:05:44;7.80;;;2.13;;
5898;SDS011;2975;50.956;6.962;2023-11-19T15:08:14;15.03;;;3.23;;
5898;SDS011;2975;50.956;6.962;2023-11-19T15:10:42;10.93;;;2.33;;
5898;SDS011;2975;50.956;6.962;2023-11-19T15:13:09;16.03;;;2.27;;
5898;SDS011;2975;50.956;6.962;2023-11-19T15:15:35;16.83;;;2.40;;
5898;SDS011;2975;50.956;6.962;2023-11-19T15:18:00;9.67;;;2.07;;
5898;SDS011;2975;50.956;6.962;2023-11-19T15:20:26;10.77;;;2.20;;
5898;SDS011;2975;50.956;6.962;2023-11-19T15:22:55;11.60;;;2.10;;
5898;SDS011;2975;50.956;6.962;2023-11-19T15:25:21;12.57;;;2.40;;
5898;SDS011;2975;50.956;6.962;2023-11-19T15:27:47;10.47;;;2.63;;
5898;SDS011;2975;50.956;6.962;2023-11-19T15:30:13;10.57;;;2.93;;
5898;SDS011;2975;50.956;6.962;2023-11-19T15:32:40;11.50;;;2.40;;